createdAt,value
2018-01-19T00:00:39.342Z,965.65
2018-01-19T00:01:39.251Z,965.65
2018-01-19T00:02:39.173Z,965.72
2018-01-19T00:03:39.087Z,965.67
2018-01-19T00:04:39.025Z,965.75
2018-01-19T00:05:38.935Z,965.80
2018-01-19T00:06:38.833Z,965.72
2018-01-19T00:07:38.749Z,965.66
2018-01-19T00:08:38.665Z,965.69
2018-01-19T00:09:38.594Z,965.70
2018-01-19T00:10:38.502Z,965.77
2018-01-19T00:11:38.414Z,965.81
2018-01-19T00:12:38.334Z,965.86
2018-01-19T00:13:38.246Z,965.79
2018-01-19T00:14:38.221Z,965.71
2018-01-19T00:15:38.078Z,965.71
2018-01-19T00:16:37.999Z,965.61
2018-01-19T00:17:37.916Z,965.57
2018-01-19T00:18:37.828Z,965.52
2018-01-19T00:19:37.747Z,965.50
2018-01-19T00:20:37.664Z,965.47
2018-01-19T00:21:37.577Z,965.56
2018-01-19T00:22:37.494Z,965.59
2018-01-19T00:23:37.410Z,965.52
2018-01-19T00:24:37.325Z,965.51
2018-01-19T00:25:37.245Z,965.56
2018-01-19T00:26:37.169Z,965.54
2018-01-19T00:27:37.082Z,965.55
2018-01-19T00:28:36.989Z,965.60
2018-01-19T00:29:36.915Z,965.57
2018-01-19T00:30:36.828Z,965.55
2018-01-19T00:31:36.741Z,965.59
2018-01-19T00:32:36.655Z,965.58
2018-01-19T00:33:36.574Z,965.58
2018-01-19T00:34:36.488Z,965.55
2018-01-19T00:35:36.404Z,965.59
2018-01-19T00:36:36.333Z,965.52
2018-01-19T00:37:36.237Z,965.57
2018-01-19T00:38:36.154Z,965.61
2018-01-19T00:39:36.071Z,965.64
2018-01-19T00:40:35.992Z,965.71
2018-01-19T00:41:35.901Z,965.71
2018-01-19T00:42:35.822Z,965.73
2018-01-19T00:43:35.735Z,965.65
2018-01-19T00:44:35.653Z,965.60
2018-01-19T00:45:35.565Z,965.60
2018-01-19T00:46:35.482Z,965.57
2018-01-19T00:47:35.398Z,965.56
2018-01-19T00:48:35.318Z,965.50
2018-01-19T00:49:35.232Z,965.48
2018-01-19T00:50:35.147Z,965.44
2018-01-19T00:51:35.065Z,965.44
2018-01-19T00:52:34.992Z,965.47
2018-01-19T00:53:34.910Z,965.51
2018-01-19T00:54:34.813Z,965.58
2018-01-19T00:55:34.737Z,965.57
2018-01-19T00:56:34.645Z,965.53
2018-01-19T00:57:34.564Z,965.45
2018-01-19T00:58:34.479Z,965.33
2018-01-19T00:59:34.393Z,965.29
2018-01-19T01:00:34.313Z,965.23
2018-01-19T01:01:34.242Z,965.22
2018-01-19T01:02:34.159Z,965.24
2018-01-19T01:03:34.060Z,965.20
2018-01-19T01:04:33.975Z,965.21
2018-01-19T01:05:33.902Z,965.26
2018-01-19T01:06:33.809Z,965.33
2018-01-19T01:07:33.727Z,965.38
2018-01-19T01:08:33.640Z,965.36
2018-01-19T01:09:33.558Z,965.35
2018-01-19T01:10:33.474Z,965.28
2018-01-19T01:11:33.389Z,965.26
2018-01-19T01:12:33.308Z,965.20
2018-01-19T01:13:33.221Z,965.21
2018-01-19T01:14:33.145Z,965.16
2018-01-19T01:15:33.055Z,965.15
2018-01-19T01:16:32.970Z,965.16
2018-01-19T01:17:32.888Z,965.15
2018-01-19T01:18:32.818Z,965.15
2018-01-19T01:19:32.722Z,965.11
2018-01-19T01:20:32.645Z,965.07
2018-01-19T01:21:32.551Z,965.08
2018-01-19T01:22:32.467Z,965.08
2018-01-19T01:23:32.386Z,965.09
2018-01-19T01:24:32.313Z,965.14
2018-01-19T01:25:32.219Z,965.17
2018-01-19T01:26:32.132Z,965.22
2018-01-19T01:27:32.060Z,965.27
2018-01-19T01:28:31.965Z,965.31
2018-01-19T01:29:31.878Z,965.33
2018-01-19T01:30:31.801Z,965.35
2018-01-19T01:31:31.715Z,965.35
2018-01-19T01:32:31.630Z,965.35
2018-01-19T01:33:31.546Z,965.34
2018-01-19T01:34:31.463Z,965.33
2018-01-19T01:35:31.382Z,965.33
2018-01-19T01:36:31.296Z,965.27
2018-01-19T01:37:31.209Z,965.25
2018-01-19T01:38:31.126Z,965.27
2018-01-19T01:39:31.041Z,965.27
2018-01-19T01:40:30.966Z,965.28
2018-01-19T01:41:30.874Z,965.26
2018-01-19T01:42:30.793Z,965.20
2018-01-19T01:43:30.706Z,965.14
2018-01-19T01:44:30.625Z,965.06
2018-01-19T01:45:30.540Z,965.12
2018-01-19T01:46:30.454Z,965.14
2018-01-19T01:47:30.385Z,965.13
2018-01-19T01:48:30.290Z,965.13
2018-01-19T01:49:30.227Z,965.07
2018-01-19T01:50:30.128Z,965.05
2018-01-19T01:51:30.039Z,965.02
2018-01-19T01:52:29.963Z,965.04
2018-01-19T01:53:29.868Z,965.10
2018-01-19T01:54:29.787Z,965.06
2018-01-19T01:55:29.707Z,965.05
2018-01-19T01:56:29.619Z,965.07
2018-01-19T01:57:29.535Z,965.13
2018-01-19T01:58:29.466Z,965.13
2018-01-19T01:59:29.367Z,965.12
2018-01-19T02:00:29.294Z,965.11
2018-01-19T02:01:29.198Z,965.15
2018-01-19T02:02:29.118Z,965.16
2018-01-19T02:03:29.036Z,965.15
2018-01-19T02:04:28.948Z,965.12
2018-01-19T02:05:28.867Z,965.16
2018-01-19T02:06:28.780Z,965.16
2018-01-19T02:07:28.698Z,965.17
2018-01-19T02:08:28.617Z,965.23
2018-01-19T02:09:28.534Z,965.25
2018-01-19T02:10:28.449Z,965.24
2018-01-19T02:11:28.369Z,965.15
2018-01-19T02:12:28.279Z,965.15
2018-01-19T02:13:28.194Z,965.11
2018-01-19T02:14:28.116Z,965.06
2018-01-19T02:15:28.027Z,964.99
2018-01-19T02:16:27.944Z,964.99
2018-01-19T02:17:27.860Z,964.97
2018-01-19T02:18:27.794Z,964.90
2018-01-19T02:19:27.692Z,964.88
2018-01-19T02:20:27.613Z,964.88
2018-01-19T02:21:27.527Z,964.89
2018-01-19T02:22:27.452Z,964.88
2018-01-19T02:23:27.360Z,964.82
2018-01-19T02:24:27.302Z,964.72
2018-01-19T02:25:27.193Z,964.73
2018-01-19T02:26:27.122Z,964.77
2018-01-19T02:27:27.033Z,964.78
2018-01-19T02:28:26.944Z,964.80
2018-01-19T02:29:26.856Z,964.84
2018-01-19T02:30:26.778Z,964.87
2018-01-19T02:31:26.691Z,964.82
2018-01-19T02:32:26.606Z,964.86
2018-01-19T02:33:26.519Z,964.82
2018-01-19T02:34:26.440Z,964.82
2018-01-19T02:35:26.357Z,964.78
2018-01-19T02:36:26.276Z,964.77
2018-01-19T02:37:26.189Z,964.78
2018-01-19T02:38:26.104Z,964.74
2018-01-19T02:39:26.021Z,964.74
2018-01-19T02:40:25.937Z,964.67
2018-01-19T02:41:25.856Z,964.69
2018-01-19T02:42:25.775Z,964.73
2018-01-19T02:43:25.688Z,964.73
2018-01-19T02:44:25.608Z,964.72
2018-01-19T02:45:25.520Z,964.73
2018-01-19T02:46:25.441Z,964.63
2018-01-19T02:47:25.352Z,964.61
2018-01-19T02:48:25.269Z,964.60
2018-01-19T02:49:25.195Z,964.60
2018-01-19T02:50:25.100Z,964.61
2018-01-19T02:51:25.022Z,964.65
2018-01-19T02:52:24.933Z,964.58
2018-01-19T02:53:24.850Z,964.58
2018-01-19T02:54:24.766Z,964.69
2018-01-19T02:55:24.688Z,964.68
2018-01-19T02:56:24.601Z,964.58
2018-01-19T02:57:24.515Z,964.62
2018-01-19T02:58:24.437Z,964.59
2018-01-19T02:59:24.348Z,964.58
2018-01-19T03:00:24.279Z,964.60
2018-01-19T03:01:24.198Z,964.58
2018-01-19T03:02:24.098Z,964.58
2018-01-19T03:03:24.011Z,964.55
2018-01-19T03:04:23.929Z,964.49
2018-01-19T03:05:23.844Z,964.47
2018-01-19T03:06:23.757Z,964.42
2018-01-19T03:07:23.680Z,964.47
2018-01-19T03:08:23.611Z,964.37
2018-01-19T03:09:23.510Z,964.47
2018-01-19T03:10:23.426Z,964.40
2018-01-19T03:11:23.340Z,964.45
2018-01-19T03:12:23.258Z,964.41
2018-01-19T03:13:23.174Z,964.43
2018-01-19T03:14:23.089Z,964.46
2018-01-19T03:15:23.005Z,964.46
2018-01-19T03:16:22.926Z,964.57
2018-01-19T03:17:22.836Z,964.88
2018-01-19T03:18:22.782Z,965.11
2018-01-19T03:19:22.673Z,965.21
2018-01-19T03:20:22.594Z,965.32
2018-01-19T03:21:22.501Z,965.31
2018-01-19T03:22:22.426Z,965.36
2018-01-19T03:23:22.335Z,965.35
2018-01-19T03:24:22.251Z,965.39
2018-01-19T03:25:22.171Z,965.50
2018-01-19T03:26:22.084Z,965.49
2018-01-19T03:27:22.001Z,965.41
2018-01-19T03:28:21.915Z,965.43
2018-01-19T03:29:21.833Z,965.50
2018-01-19T03:30:21.745Z,965.54
2018-01-19T03:31:21.664Z,965.62
2018-01-19T03:32:21.578Z,965.66
2018-01-19T03:33:21.496Z,965.71
2018-01-19T03:34:21.428Z,965.68
2018-01-19T03:35:21.326Z,965.72
2018-01-19T03:36:21.241Z,965.72
2018-01-19T03:37:21.158Z,965.85
2018-01-19T03:38:21.073Z,965.81
2018-01-19T03:39:20.990Z,965.79
2018-01-19T03:40:20.905Z,965.86
2018-01-19T03:41:20.824Z,965.90
2018-01-19T03:42:20.744Z,966.04
2018-01-19T03:43:20.656Z,966.09
2018-01-19T03:44:20.567Z,966.15
2018-01-19T03:45:20.482Z,966.17
2018-01-19T03:46:20.397Z,966.22
2018-01-19T03:47:20.312Z,966.20
2018-01-19T03:48:20.231Z,966.21
2018-01-19T03:49:20.142Z,966.13
2018-01-19T03:50:20.057Z,966.16
2018-01-19T03:51:19.989Z,966.16
2018-01-19T03:52:19.889Z,966.10
2018-01-19T03:53:19.806Z,966.09
2018-01-19T03:54:19.717Z,966.14
2018-01-19T03:55:19.634Z,966.19
2018-01-19T03:56:19.548Z,966.23
2018-01-19T03:57:19.462Z,966.23
2018-01-19T03:58:19.377Z,966.31
2018-01-19T03:59:19.295Z,966.29
2018-01-19T04:00:19.211Z,966.29
2018-01-19T04:01:19.124Z,966.31
2018-01-19T04:02:19.042Z,966.22
2018-01-19T04:03:18.957Z,966.26
2018-01-19T04:04:18.869Z,966.29
2018-01-19T04:05:18.782Z,966.25
2018-01-19T04:06:18.699Z,966.22
2018-01-19T04:07:18.613Z,966.15
2018-01-19T04:08:18.531Z,966.10
2018-01-19T04:09:18.444Z,966.08
2018-01-19T04:10:18.372Z,966.03
2018-01-19T04:11:18.272Z,966.03
2018-01-19T04:12:18.190Z,965.94
2018-01-19T04:13:18.107Z,965.97
2018-01-19T04:14:18.029Z,965.96
2018-01-19T04:15:17.933Z,965.93
2018-01-19T04:16:17.853Z,965.95
2018-01-19T04:17:17.760Z,965.87
2018-01-19T04:18:17.677Z,965.83
2018-01-19T04:19:17.591Z,965.85
2018-01-19T04:20:17.504Z,965.83
2018-01-19T04:21:17.421Z,965.87
2018-01-19T04:22:17.348Z,965.80
2018-01-19T04:23:17.260Z,965.81
2018-01-19T04:24:17.166Z,965.82
2018-01-19T04:25:17.082Z,965.80
2018-01-19T04:26:16.996Z,965.74
2018-01-19T04:27:16.910Z,965.79
2018-01-19T04:28:16.827Z,965.77
2018-01-19T04:29:16.737Z,965.78
2018-01-19T04:30:16.656Z,965.82
2018-01-19T04:31:16.572Z,965.86
2018-01-19T04:32:16.485Z,965.87
2018-01-19T04:33:16.415Z,965.85
2018-01-19T04:34:16.316Z,965.86
2018-01-19T04:35:16.232Z,965.83
2018-01-19T04:36:16.149Z,965.82
2018-01-19T04:37:16.059Z,965.82
2018-01-19T04:38:15.979Z,965.82
2018-01-19T04:39:15.890Z,965.87
2018-01-19T04:40:15.809Z,965.81
2018-01-19T04:41:15.723Z,965.79
2018-01-19T04:42:15.637Z,965.79
2018-01-19T04:43:15.551Z,965.85
2018-01-19T04:44:15.469Z,965.84
2018-01-19T04:45:15.378Z,965.88
2018-01-19T04:46:15.296Z,965.90
2018-01-19T04:47:15.209Z,965.87
2018-01-19T04:48:15.125Z,965.91
2018-01-19T04:49:15.041Z,965.92
2018-01-19T04:50:14.959Z,965.99
2018-01-19T04:51:14.886Z,966.01
2018-01-19T04:52:14.807Z,966.00
2018-01-19T04:53:14.716Z,966.05
2018-01-19T04:54:14.615Z,966.05
2018-01-19T04:55:14.534Z,966.12
2018-01-19T04:56:14.447Z,966.14
2018-01-19T04:57:14.360Z,966.15
2018-01-19T04:58:14.277Z,966.17
2018-01-19T04:59:14.200Z,966.18
2018-01-19T05:00:14.122Z,966.17
2018-01-19T05:01:14.021Z,966.23
2018-01-19T05:02:13.944Z,966.20
2018-01-19T05:03:13.852Z,966.28
2018-01-19T05:04:13.767Z,966.30
2018-01-19T05:05:13.683Z,966.31
2018-01-19T05:06:13.613Z,966.37
2018-01-19T05:07:13.514Z,966.35
2018-01-19T05:08:13.429Z,966.38
2018-01-19T05:09:13.342Z,966.44
2018-01-19T05:10:13.261Z,966.37
2018-01-19T05:11:13.174Z,966.35
2018-01-19T05:12:13.100Z,966.33
2018-01-19T05:13:13.004Z,966.31
2018-01-19T05:14:12.922Z,966.32
2018-01-19T05:15:12.839Z,966.29
2018-01-19T05:16:12.751Z,966.29
2018-01-19T05:17:12.665Z,966.23
2018-01-19T05:18:12.580Z,966.18
2018-01-19T05:19:12.514Z,966.22
2018-01-19T05:20:12.413Z,966.23
2018-01-19T05:21:12.325Z,966.26
2018-01-19T05:22:12.241Z,966.23
2018-01-19T05:23:12.156Z,966.28
2018-01-19T05:24:12.076Z,966.25
2018-01-19T05:25:11.986Z,966.23
2018-01-19T05:26:11.903Z,966.18
2018-01-19T05:27:11.822Z,966.14
2018-01-19T05:28:11.732Z,966.18
2018-01-19T05:29:11.646Z,966.10
2018-01-19T05:30:11.571Z,966.10
2018-01-19T05:31:11.476Z,966.08
2018-01-19T05:32:11.394Z,966.11
2018-01-19T05:33:11.308Z,966.20
2018-01-19T05:34:11.223Z,966.18
2018-01-19T05:35:11.137Z,966.18
2018-01-19T05:36:11.055Z,966.22
2018-01-19T05:37:10.972Z,966.25
2018-01-19T05:38:10.889Z,966.20
2018-01-19T05:39:10.810Z,966.27
2018-01-19T05:40:10.715Z,966.34
2018-01-19T05:41:10.633Z,966.34
2018-01-19T05:42:10.548Z,966.41
2018-01-19T05:43:10.463Z,966.43
2018-01-19T05:44:10.378Z,966.40
2018-01-19T05:45:10.291Z,966.43
2018-01-19T05:46:10.205Z,966.46
2018-01-19T05:47:10.132Z,966.48
2018-01-19T05:48:10.036Z,966.50
2018-01-19T05:49:09.962Z,966.47
2018-01-19T05:50:09.869Z,966.50
2018-01-19T05:51:09.784Z,966.57
2018-01-19T05:52:09.699Z,966.58
2018-01-19T05:53:09.615Z,966.64
2018-01-19T05:54:09.529Z,966.67
2018-01-19T05:55:09.459Z,966.64
2018-01-19T05:56:09.359Z,966.70
2018-01-19T05:57:09.276Z,966.71
2018-01-19T05:58:09.205Z,966.68
2018-01-19T05:59:09.103Z,966.73
2018-01-19T06:00:09.018Z,966.74
2018-01-19T06:01:08.935Z,966.67
2018-01-19T06:02:08.848Z,966.66
2018-01-19T06:03:08.797Z,966.70
2018-01-19T06:04:09.469Z,966.72
2018-01-19T06:05:08.600Z,966.72
2018-01-19T06:06:08.511Z,966.72
2018-01-19T06:07:08.435Z,966.70
2018-01-19T06:08:08.348Z,966.68
2018-01-19T06:09:08.255Z,966.69
2018-01-19T06:10:08.174Z,966.69
2018-01-19T06:11:08.096Z,966.68
2018-01-19T06:12:07.999Z,966.78
2018-01-19T06:13:07.920Z,966.75
2018-01-19T06:14:07.829Z,966.75
2018-01-19T06:15:07.750Z,966.80
2018-01-19T06:16:07.692Z,966.77
2018-01-19T06:17:07.585Z,966.76
2018-01-19T06:18:07.492Z,966.73
2018-01-19T06:19:07.408Z,966.71
2018-01-19T06:20:07.326Z,966.76
2018-01-19T06:21:07.238Z,966.78
2018-01-19T06:22:07.153Z,966.80
2018-01-19T06:23:07.069Z,966.84
2018-01-19T06:24:06.983Z,966.86
2018-01-19T06:25:06.906Z,966.88
2018-01-19T06:26:06.836Z,966.91
2018-01-19T06:27:06.730Z,966.96
2018-01-19T06:28:06.645Z,967.02
2018-01-19T06:29:06.561Z,967.00
2018-01-19T06:30:06.475Z,967.08
2018-01-19T06:31:06.392Z,967.11
2018-01-19T06:32:06.308Z,967.12
2018-01-19T06:33:06.221Z,967.08
2018-01-19T06:34:06.137Z,967.12
2018-01-19T06:35:06.051Z,967.14
2018-01-19T06:36:05.986Z,967.19
2018-01-19T06:37:05.884Z,967.20
2018-01-19T06:38:05.798Z,967.27
2018-01-19T06:39:05.718Z,967.22
2018-01-19T06:40:05.629Z,967.25
2018-01-19T06:41:05.543Z,967.31
2018-01-19T06:42:05.458Z,967.41
2018-01-19T06:43:05.373Z,967.42
2018-01-19T06:44:05.287Z,967.43
2018-01-19T06:45:05.207Z,967.42
2018-01-19T06:46:05.122Z,967.48
2018-01-19T06:47:05.035Z,967.50
2018-01-19T06:48:04.951Z,967.52
2018-01-19T06:49:04.864Z,967.51
2018-01-19T06:50:04.780Z,967.49
2018-01-19T06:51:04.697Z,967.49
2018-01-19T06:52:04.612Z,967.48
2018-01-19T06:53:04.545Z,967.48
2018-01-19T06:54:04.442Z,967.50
2018-01-19T06:55:04.378Z,967.54
2018-01-19T06:56:04.273Z,967.58
2018-01-19T06:57:04.189Z,967.62
2018-01-19T06:58:04.102Z,967.61
2018-01-19T06:59:04.028Z,967.71
2018-01-19T07:00:03.935Z,967.69
2018-01-19T07:01:03.850Z,967.70
2018-01-19T07:02:03.764Z,967.70
2018-01-19T07:03:03.687Z,967.75
2018-01-19T07:04:03.618Z,967.72
2018-01-19T07:05:03.512Z,967.85
2018-01-19T07:06:03.434Z,967.82
2018-01-19T07:07:03.340Z,967.81
2018-01-19T07:08:03.257Z,967.87
2018-01-19T07:09:03.171Z,967.90
2018-01-19T07:10:03.086Z,967.82
2018-01-19T07:11:03.002Z,967.86
2018-01-19T07:12:02.934Z,967.97
2018-01-19T07:13:02.843Z,967.91
2018-01-19T07:14:02.752Z,968.04
2018-01-19T07:15:02.663Z,968.06
2018-01-19T07:16:02.581Z,968.04
2018-01-19T07:17:02.497Z,968.09
2018-01-19T07:18:02.411Z,968.25
2018-01-19T07:19:02.325Z,968.24
2018-01-19T07:20:02.241Z,968.28
2018-01-19T07:21:02.171Z,968.43
2018-01-19T07:22:02.085Z,968.40
2018-01-19T07:23:01.987Z,968.34
2018-01-19T07:24:01.909Z,968.37
2018-01-19T07:25:01.819Z,968.41
2018-01-19T07:26:01.743Z,968.43
2018-01-19T07:27:01.647Z,968.48
2018-01-19T07:28:01.564Z,968.38
2018-01-19T07:29:01.480Z,968.51
2018-01-19T07:30:01.412Z,968.46
2018-01-19T07:31:01.387Z,968.51
2018-01-19T07:32:01.224Z,968.56
2018-01-19T07:33:01.144Z,968.63
2018-01-19T07:34:01.055Z,968.60
2018-01-19T07:35:00.970Z,968.57
2018-01-19T07:36:00.887Z,968.63
2018-01-19T07:37:00.803Z,968.60
2018-01-19T07:38:00.722Z,968.66
2018-01-19T07:39:00.633Z,968.64
2018-01-19T07:40:00.548Z,968.82
2018-01-19T07:41:00.460Z,968.77
2018-01-19T07:42:00.378Z,968.76
2018-01-19T07:43:00.311Z,968.86
2018-01-19T07:44:00.209Z,968.84
2018-01-19T07:45:00.143Z,968.90
2018-01-19T07:46:00.044Z,968.91
2018-01-19T07:46:59.958Z,969.02
2018-01-19T07:47:59.869Z,968.95
2018-01-19T07:48:59.800Z,969.08
2018-01-19T07:49:59.703Z,969.08
2018-01-19T07:50:59.618Z,968.96
2018-01-19T07:51:59.530Z,969.11
2018-01-19T07:52:59.445Z,969.20
2018-01-19T07:53:59.363Z,969.13
2018-01-19T07:54:59.277Z,969.21
2018-01-19T07:55:59.195Z,969.19
2018-01-19T07:56:59.104Z,969.23
2018-01-19T07:57:59.038Z,969.19
2018-01-19T07:58:58.936Z,969.21
2018-01-19T07:59:58.860Z,969.35
2018-01-19T08:00:58.771Z,969.33
2018-01-19T08:01:58.685Z,969.41
2018-01-19T08:02:58.598Z,969.38
2018-01-19T08:03:58.515Z,969.48
2018-01-19T08:04:58.430Z,969.42
2018-01-19T08:05:58.343Z,969.55
2018-01-19T08:06:58.260Z,969.51
2018-01-19T08:07:58.191Z,969.44
2018-01-19T08:08:58.095Z,969.57
2018-01-19T08:09:58.005Z,969.59
2018-01-19T08:10:57.920Z,969.58
2018-01-19T08:11:57.841Z,969.62
2018-01-19T08:12:57.753Z,969.67
2018-01-19T08:13:57.667Z,969.63
2018-01-19T08:14:57.583Z,969.70
2018-01-19T08:15:57.496Z,969.73
2018-01-19T08:16:57.409Z,969.75
2018-01-19T08:17:57.342Z,969.77
2018-01-19T08:18:57.242Z,969.76
2018-01-19T08:19:57.159Z,969.75
2018-01-19T08:20:57.076Z,969.69
2018-01-19T08:21:56.989Z,969.73
2018-01-19T08:22:56.908Z,969.71
2018-01-19T08:23:56.821Z,969.75
2018-01-19T08:24:56.732Z,969.70
2018-01-19T08:25:56.651Z,969.77
2018-01-19T08:26:56.566Z,969.71
2018-01-19T08:27:56.482Z,969.73
2018-01-19T08:28:56.396Z,969.70
2018-01-19T08:29:56.311Z,969.76
2018-01-19T08:30:56.229Z,969.79
2018-01-19T08:31:56.144Z,969.82
2018-01-19T08:32:56.060Z,969.75
2018-01-19T08:33:55.973Z,969.78
2018-01-19T08:34:55.897Z,969.83
2018-01-19T08:35:55.803Z,969.85
2018-01-19T08:36:55.719Z,969.81
2018-01-19T08:37:55.634Z,969.93
2018-01-19T08:38:55.547Z,969.87
2018-01-19T08:39:55.464Z,969.95
2018-01-19T08:40:55.384Z,969.93
2018-01-19T08:41:55.299Z,969.95
2018-01-19T08:42:55.210Z,969.97
2018-01-19T08:43:55.136Z,969.98
2018-01-19T08:44:55.040Z,970.02
2018-01-19T08:45:54.957Z,970.02
2018-01-19T08:46:54.878Z,970.09
2018-01-19T08:47:54.788Z,970.10
2018-01-19T08:48:54.705Z,970.13
2018-01-19T08:49:54.618Z,970.09
2018-01-19T08:50:54.539Z,970.14
2018-01-19T08:51:54.449Z,970.20
2018-01-19T08:52:54.362Z,970.24
2018-01-19T08:53:54.300Z,970.28
2018-01-19T08:54:54.198Z,970.29
2018-01-19T08:55:54.108Z,970.32
2018-01-19T08:56:54.025Z,970.35
2018-01-19T08:57:53.941Z,970.33
2018-01-19T08:58:53.864Z,970.35
2018-01-19T08:59:53.773Z,970.42
2018-01-19T09:00:53.703Z,970.48
2018-01-19T09:01:53.603Z,970.48
2018-01-19T09:02:53.518Z,970.48
2018-01-19T09:03:53.436Z,970.57
2018-01-19T09:04:53.346Z,970.57
2018-01-19T09:05:53.265Z,970.59
2018-01-19T09:06:53.186Z,970.60
2018-01-19T09:07:53.094Z,970.57
2018-01-19T09:08:53.010Z,970.64
2018-01-19T09:09:52.928Z,970.73
2018-01-19T09:10:52.842Z,970.66
2018-01-19T09:11:52.759Z,970.71
2018-01-19T09:12:52.720Z,970.76
2018-01-19T09:13:52.595Z,970.77
2018-01-19T09:14:52.513Z,970.82
2018-01-19T09:15:52.426Z,970.76
2018-01-19T09:16:52.337Z,970.85
2018-01-19T09:17:52.252Z,970.85
2018-01-19T09:18:52.175Z,970.89
2018-01-19T09:19:52.088Z,970.91
2018-01-19T09:20:52.000Z,970.97
2018-01-19T09:21:51.916Z,971.02
2018-01-19T09:22:51.833Z,971.05
2018-01-19T09:23:51.747Z,971.11
2018-01-19T09:24:51.663Z,971.16
2018-01-19T09:25:51.575Z,971.17
2018-01-19T09:26:51.492Z,971.23
2018-01-19T09:27:51.417Z,971.28
2018-01-19T09:28:51.326Z,971.33
2018-01-19T09:29:51.244Z,971.39
2018-01-19T09:30:51.158Z,971.35
2018-01-19T09:31:51.073Z,971.38
2018-01-19T09:32:50.990Z,971.45
2018-01-19T09:33:50.903Z,971.37
2018-01-19T09:34:50.825Z,971.36
2018-01-19T09:35:50.737Z,971.36
2018-01-19T09:36:50.653Z,971.41
2018-01-19T09:37:50.568Z,971.43
2018-01-19T09:38:50.486Z,971.41
2018-01-19T09:39:50.400Z,971.49
2018-01-19T09:40:50.314Z,971.39
2018-01-19T09:41:50.234Z,971.54
2018-01-19T09:42:50.152Z,971.49
2018-01-19T09:43:50.067Z,971.60
2018-01-19T09:44:49.984Z,971.60
2018-01-19T09:45:49.925Z,971.63
2018-01-19T09:46:49.812Z,971.65
2018-01-19T09:47:49.738Z,971.66
2018-01-19T09:48:49.640Z,971.58
2018-01-19T09:49:49.562Z,971.70
2018-01-19T09:50:49.476Z,971.80
2018-01-19T09:51:49.393Z,971.76
2018-01-19T09:52:49.306Z,971.78
2018-01-19T09:53:49.221Z,971.85
2018-01-19T09:54:49.138Z,971.87
2018-01-19T09:55:49.055Z,971.81
2018-01-19T09:56:48.978Z,971.82
2018-01-19T09:57:48.884Z,971.83
2018-01-19T09:58:48.804Z,971.86
2018-01-19T09:59:48.727Z,971.86
2018-01-19T10:00:48.633Z,971.93
2018-01-19T10:01:48.548Z,971.93
2018-01-19T10:02:48.465Z,971.95
2018-01-19T10:03:48.379Z,971.93
2018-01-19T10:04:48.295Z,971.90
2018-01-19T10:05:48.216Z,971.94
2018-01-19T10:06:48.127Z,971.95
2018-01-19T10:07:48.043Z,972.02
2018-01-19T10:08:47.957Z,972.02
2018-01-19T10:09:47.873Z,972.02
2018-01-19T10:10:47.808Z,972.03
2018-01-19T10:11:47.708Z,972.03
2018-01-19T10:12:47.623Z,972.09
2018-01-19T10:13:47.540Z,972.09
2018-01-19T10:14:47.456Z,972.03
2018-01-19T10:15:47.372Z,972.12
2018-01-19T10:16:47.284Z,972.06
2018-01-19T10:17:47.197Z,972.09
2018-01-19T10:18:47.116Z,972.06
2018-01-19T10:19:47.053Z,972.05
2018-01-19T10:20:46.946Z,972.16
2018-01-19T10:21:46.866Z,972.18
2018-01-19T10:22:46.778Z,972.10
2018-01-19T10:23:46.691Z,972.12
2018-01-19T10:24:46.608Z,972.12
2018-01-19T10:25:46.526Z,972.16
2018-01-19T10:26:46.446Z,972.14
2018-01-19T10:27:46.357Z,972.25
2018-01-19T10:28:46.284Z,972.23
2018-01-19T10:29:46.186Z,972.16
2018-01-19T10:30:46.101Z,972.08
2018-01-19T10:31:46.034Z,972.03
2018-01-19T10:32:45.932Z,972.08
2018-01-19T10:33:45.852Z,972.06
2018-01-19T10:34:45.766Z,972.07
2018-01-19T10:35:45.679Z,972.09
2018-01-19T10:36:45.610Z,972.07
2018-01-19T10:37:45.516Z,972.12
2018-01-19T10:38:45.426Z,972.11
2018-01-19T10:39:45.341Z,972.08
2018-01-19T10:40:45.255Z,972.06
2018-01-19T10:41:45.187Z,972.05
2018-01-19T10:42:45.089Z,972.01
2018-01-19T10:43:45.004Z,972.04
2018-01-19T10:44:44.920Z,972.00
2018-01-19T10:45:44.834Z,972.03
2018-01-19T10:46:44.754Z,972.07
2018-01-19T10:47:44.668Z,972.11
2018-01-19T10:48:44.584Z,972.02
2018-01-19T10:49:44.497Z,972.08
2018-01-19T10:50:44.415Z,972.01
2018-01-19T10:51:44.339Z,972.05
2018-01-19T10:52:44.243Z,971.98
2018-01-19T10:53:44.155Z,972.01
2018-01-19T10:54:44.074Z,971.96
2018-01-19T10:55:43.989Z,971.98
2018-01-19T10:56:43.907Z,971.99
2018-01-19T10:57:43.820Z,971.96
2018-01-19T10:58:43.735Z,971.96
2018-01-19T10:59:43.670Z,972.03
2018-01-19T11:00:43.567Z,971.95
2018-01-19T11:01:43.481Z,971.98
2018-01-19T11:02:43.396Z,972.06
2018-01-19T11:03:43.319Z,972.01
2018-01-19T11:04:43.226Z,972.05
2018-01-19T11:05:43.144Z,971.96
2018-01-19T11:06:43.060Z,971.96
2018-01-19T11:07:42.976Z,971.97
2018-01-19T11:08:42.900Z,972.02
2018-01-19T11:09:42.822Z,972.00
2018-01-19T11:10:42.726Z,971.99
2018-01-19T11:11:42.638Z,971.98
2018-01-19T11:12:42.552Z,971.96
2018-01-19T11:13:42.468Z,972.00
2018-01-19T11:14:42.383Z,971.98
2018-01-19T11:15:42.297Z,972.02
2018-01-19T11:16:42.210Z,972.11
2018-01-19T11:17:42.128Z,972.03
2018-01-19T11:18:42.059Z,972.11
2018-01-19T11:19:41.959Z,972.12
2018-01-19T11:20:41.876Z,972.13
2018-01-19T11:21:41.786Z,972.06
2018-01-19T11:22:41.704Z,972.15
2018-01-19T11:23:41.621Z,972.11
2018-01-19T11:24:41.533Z,972.10
2018-01-19T11:25:41.459Z,972.17
2018-01-19T11:26:41.367Z,972.21
2018-01-19T11:27:41.301Z,972.27
2018-01-19T11:28:41.194Z,972.06
2018-01-19T11:29:41.112Z,972.24
2018-01-19T11:30:41.028Z,972.13
2018-01-19T11:31:40.946Z,972.06
2018-01-19T11:32:40.856Z,972.10
2018-01-19T11:33:40.774Z,972.10
2018-01-19T11:34:40.689Z,972.14
2018-01-19T11:35:40.608Z,972.11
2018-01-19T11:36:40.547Z,972.06
2018-01-19T11:37:40.435Z,972.13
2018-01-19T11:38:40.351Z,972.12
2018-01-19T11:39:40.266Z,972.10
2018-01-19T11:40:40.196Z,972.11
2018-01-19T11:41:40.098Z,972.13
2018-01-19T11:42:40.014Z,972.15
2018-01-19T11:43:39.932Z,972.16
2018-01-19T11:44:39.846Z,972.14
2018-01-19T11:45:39.785Z,972.19
2018-01-19T11:46:39.674Z,972.16
2018-01-19T11:47:39.595Z,972.18
2018-01-19T11:48:39.508Z,972.21
2018-01-19T11:49:39.425Z,972.17
2018-01-19T11:50:39.337Z,972.25
2018-01-19T11:51:39.254Z,972.21
2018-01-19T11:52:39.169Z,972.22
2018-01-19T11:53:39.086Z,972.26
2018-01-19T11:54:39.000Z,972.18
2018-01-19T11:55:38.952Z,972.26
2018-01-19T11:56:38.830Z,972.25
2018-01-19T11:57:38.747Z,972.27
2018-01-19T11:58:38.663Z,972.20
2018-01-19T11:59:38.580Z,972.27
2018-01-19T12:00:38.499Z,972.20
2018-01-19T12:01:38.422Z,972.25
2018-01-19T12:02:38.326Z,972.17
2018-01-19T12:03:38.262Z,972.27
2018-01-19T12:04:38.158Z,972.23
2018-01-19T12:05:38.076Z,972.22
2018-01-19T12:06:38.027Z,972.19
2018-01-19T12:07:37.909Z,972.26
2018-01-19T12:08:37.820Z,972.24
2018-01-19T12:09:37.741Z,972.24
2018-01-19T12:10:37.653Z,972.29
2018-01-19T12:11:37.573Z,972.34
2018-01-19T12:12:37.511Z,972.22
2018-01-19T12:13:37.400Z,972.23
2018-01-19T12:14:37.322Z,972.21
2018-01-19T12:15:37.235Z,972.19
2018-01-19T12:16:37.146Z,972.20
2018-01-19T12:17:37.068Z,972.18
2018-01-19T12:18:37.005Z,972.12
2018-01-19T12:19:36.898Z,972.18
2018-01-19T12:20:36.812Z,972.15
2018-01-19T12:21:36.745Z,972.15
2018-01-19T12:22:36.644Z,972.09
2018-01-19T12:23:36.570Z,972.16
2018-01-19T12:24:36.473Z,972.07
2018-01-19T12:25:36.395Z,972.14
2018-01-19T12:26:36.308Z,972.13
2018-01-19T12:27:36.223Z,972.13